createdAt,value
2023-05-15T00:00:49.225Z,9.37
2023-05-15T00:03:17.718Z,9.30
2023-05-15T00:05:45.165Z,11.57
2023-05-15T00:08:12.457Z,8.87
2023-05-15T00:10:42.788Z,8.53
2023-05-15T00:13:14.929Z,10.90
2023-05-15T00:15:42.156Z,8.73
2023-05-15T00:18:09.416Z,9.27
2023-05-15T00:20:36.781Z,8.87
2023-05-15T00:23:04.225Z,8.60
2023-05-15T00:25:31.690Z,8.77
2023-05-15T00:27:59.049Z,9.00
2023-05-15T00:30:26.464Z,9.00
2023-05-15T00:32:53.874Z,9.53
2023-05-15T00:35:21.327Z,8.67
2023-05-15T00:37:48.802Z,9.20
2023-05-15T00:40:24.860Z,9.90
2023-05-15T00:42:53.183Z,9.87
2023-05-15T00:45:20.918Z,9.40
2023-05-15T00:47:48.890Z,9.30
2023-05-15T00:50:16.692Z,9.10
2023-05-15T00:52:44.289Z,9.17
2023-05-15T00:55:11.621Z,9.93
2023-05-15T00:57:39.392Z,8.20
2023-05-15T01:00:10.586Z,9.20
2023-05-15T01:02:38.371Z,9.57
2023-05-15T01:05:08.082Z,8.53
2023-05-15T01:07:39.425Z,7.90
2023-05-15T01:10:08.043Z,10.63
2023-05-15T01:12:37.113Z,10.00
2023-05-15T01:15:04.519Z,9.60
2023-05-15T01:17:32.314Z,11.17
2023-05-15T01:20:00.638Z,9.73
2023-05-15T01:22:29.123Z,10.50
2023-05-15T01:24:59.691Z,9.80
2023-05-15T01:27:31.576Z,10.10
2023-05-15T01:30:17.688Z,10.67
2023-05-15T01:32:44.999Z,13.13
2023-05-15T01:35:18.560Z,10.23
2023-05-15T01:37:50.032Z,9.90
2023-05-15T01:40:19.199Z,10.63
2023-05-15T01:42:52.288Z,10.13
2023-05-15T01:45:21.244Z,9.70
2023-05-15T01:47:49.711Z,9.93
2023-05-15T01:50:18.767Z,9.83
2023-05-15T01:52:49.088Z,9.77
2023-05-15T01:55:16.649Z,11.63
2023-05-15T01:57:44.636Z,14.47
2023-05-15T02:00:12.832Z,13.03
2023-05-15T02:02:40.542Z,12.13
2023-05-15T02:05:08.579Z,11.57
2023-05-15T02:07:36.045Z,11.93
2023-05-15T02:10:04.159Z,13.93
2023-05-15T02:12:32.372Z,11.23
2023-05-15T02:15:00.205Z,10.63
2023-05-15T02:17:28.787Z,10.40
2023-05-15T02:19:56.370Z,10.07
2023-05-15T02:22:23.788Z,9.07
2023-05-15T02:24:51.225Z,9.37
2023-05-15T02:27:21.946Z,9.83
2023-05-15T02:30:01.236Z,9.50
2023-05-15T02:32:35.952Z,9.73
2023-05-15T02:35:03.386Z,10.90
2023-05-15T02:37:34.172Z,9.63
2023-05-15T02:40:01.927Z,9.37
2023-05-15T02:42:30.550Z,9.47
2023-05-15T02:44:59.453Z,9.70
2023-05-15T02:47:27.556Z,9.73
2023-05-15T02:49:55.043Z,9.43
2023-05-15T02:52:23.925Z,8.57
2023-05-15T02:54:51.453Z,9.27
2023-05-15T02:57:18.716Z,8.37
2023-05-15T02:59:46.122Z,7.83
2023-05-15T03:02:13.428Z,8.20
2023-05-15T03:04:40.830Z,7.40
2023-05-15T03:07:08.533Z,7.93
2023-05-15T03:09:35.948Z,8.33
2023-05-15T03:12:03.458Z,8.00
2023-05-15T03:14:30.708Z,9.33
2023-05-15T03:16:58.107Z,6.97
2023-05-15T03:19:25.404Z,8.07
2023-05-15T03:21:52.933Z,7.80
2023-05-15T03:24:21.052Z,8.10
2023-05-15T03:26:48.449Z,8.43
2023-05-15T03:29:15.766Z,8.47
2023-05-15T03:31:43.336Z,7.10
2023-05-15T03:34:10.715Z,9.30
2023-05-15T03:36:38.207Z,7.90
2023-05-15T03:39:05.503Z,7.87
2023-05-15T03:41:32.787Z,8.13
2023-05-15T03:44:00.210Z,7.87
2023-05-15T03:46:27.680Z,8.03
2023-05-15T03:48:56.144Z,8.07
2023-05-15T03:51:24.452Z,7.47
2023-05-15T03:53:51.868Z,7.97
2023-05-15T03:56:19.068Z,8.60
2023-05-15T03:58:46.619Z,8.27
2023-05-15T04:01:13.961Z,9.53
2023-05-15T04:03:41.381Z,7.73
2023-05-15T04:06:08.660Z,8.50
2023-05-15T04:08:36.343Z,8.90
2023-05-15T04:11:03.708Z,8.20
2023-05-15T04:13:31.013Z,8.43
2023-05-15T04:16:00.233Z,9.90
2023-05-15T04:18:27.998Z,8.67
2023-05-15T04:20:55.658Z,8.50
2023-05-15T04:23:23.140Z,8.63
2023-05-15T04:25:54.530Z,8.60
2023-05-15T04:28:22.077Z,8.63
2023-05-15T04:30:49.583Z,8.83
2023-05-15T04:33:16.845Z,8.13
2023-05-15T04:35:44.510Z,8.43
2023-05-15T04:38:11.821Z,8.87
2023-05-15T04:40:39.058Z,8.40
2023-05-15T04:43:06.590Z,7.80
2023-05-15T04:45:33.864Z,8.13
2023-05-15T04:48:01.549Z,8.43
2023-05-15T04:50:29.012Z,8.63
2023-05-15T04:52:56.350Z,8.97
2023-05-15T04:55:23.868Z,8.17
2023-05-15T04:57:51.580Z,9.90
2023-05-15T05:00:19.021Z,12.60
2023-05-15T05:02:46.395Z,9.90
2023-05-15T05:05:15.050Z,9.63
2023-05-15T05:07:44.397Z,8.43
2023-05-15T05:10:12.093Z,9.13
2023-05-15T05:12:39.479Z,9.10
2023-05-15T05:15:07.068Z,10.57
2023-05-15T05:17:34.392Z,8.73
2023-05-15T05:20:01.975Z,8.23
2023-05-15T05:22:29.467Z,8.77
2023-05-15T05:24:56.856Z,9.10
2023-05-15T05:27:24.266Z,10.63
2023-05-15T05:29:53.469Z,7.47
2023-05-15T05:32:21.048Z,8.20
2023-05-15T05:34:48.445Z,8.73
2023-05-15T05:37:15.711Z,8.27
2023-05-15T05:39:44.143Z,7.93
2023-05-15T05:42:11.536Z,8.67
2023-05-15T05:44:38.806Z,7.50
2023-05-15T05:47:06.220Z,7.83
2023-05-15T05:49:33.510Z,8.30
2023-05-15T05:52:06.675Z,7.53
2023-05-15T05:54:34.090Z,7.90
2023-05-15T05:57:02.040Z,8.30
2023-05-15T05:59:29.777Z,8.13
2023-05-15T06:01:57.598Z,8.47
2023-05-15T06:04:25.032Z,9.13
2023-05-15T06:06:53.410Z,7.93
2023-05-15T06:09:20.668Z,8.80
2023-05-15T06:11:48.133Z,8.17
2023-05-15T06:14:15.398Z,7.70
2023-05-15T06:16:42.787Z,9.47
2023-05-15T06:19:10.362Z,8.23
2023-05-15T06:21:38.244Z,7.77
2023-05-15T06:24:06.110Z,7.60
2023-05-15T06:26:33.553Z,8.23
2023-05-15T06:29:02.089Z,9.40
2023-05-15T06:31:30.838Z,7.30
2023-05-15T06:33:58.387Z,7.87
2023-05-15T06:36:25.761Z,7.93
2023-05-15T06:38:53.111Z,7.60
2023-05-15T06:41:21.570Z,8.10
2023-05-15T06:43:48.951Z,7.70
2023-05-15T06:46:19.111Z,7.70
2023-05-15T06:48:46.546Z,7.77
2023-05-15T06:51:13.804Z,7.93
2023-05-15T06:53:42.885Z,7.00
2023-05-15T06:56:10.162Z,7.60
2023-05-15T06:58:37.477Z,7.80
2023-05-15T07:01:06.537Z,9.03
2023-05-15T07:03:34.303Z,8.90
2023-05-15T07:06:01.626Z,8.18
2023-05-15T07:08:28.949Z,7.60
2023-05-15T07:10:56.239Z,8.00
2023-05-15T07:13:23.628Z,8.50
2023-05-15T07:15:51.053Z,8.00
2023-05-15T07:18:19.285Z,8.50
2023-05-15T07:20:46.853Z,8.15
2023-05-15T07:23:14.226Z,8.25
2023-05-15T07:25:42.058Z,8.10
2023-05-15T07:28:09.453Z,9.15
2023-05-15T07:30:36.770Z,8.35
2023-05-15T07:33:04.379Z,8.02
2023-05-15T07:35:31.756Z,8.03
2023-05-15T07:37:59.523Z,8.65
2023-05-15T07:40:27.402Z,7.60
2023-05-15T07:42:54.748Z,9.27
2023-05-15T07:45:22.230Z,8.50
2023-05-15T07:47:50.381Z,8.00
2023-05-15T07:50:18.003Z,7.80
2023-05-15T07:52:45.294Z,7.63
2023-05-15T07:55:13.293Z,7.28
2023-05-15T07:57:41.130Z,8.07
2023-05-15T08:00:11.333Z,7.97
2023-05-15T08:02:38.684Z,7.55
2023-05-15T08:05:06.292Z,7.00
2023-05-15T08:07:36.436Z,8.55
2023-05-15T08:10:06.302Z,7.13
2023-05-15T08:12:33.832Z,6.53
2023-05-15T08:15:01.170Z,7.38
2023-05-15T08:17:28.764Z,7.00
2023-05-15T08:19:56.632Z,7.30
2023-05-15T08:22:24.005Z,7.32
2023-05-15T08:24:51.512Z,8.02
2023-05-15T08:27:18.742Z,6.55
2023-05-15T08:29:46.043Z,7.65
2023-05-15T08:32:13.292Z,7.45
2023-05-15T08:34:40.557Z,7.70
2023-05-15T08:37:07.789Z,5.25
2023-05-15T08:39:35.393Z,4.95
2023-05-15T08:42:05.847Z,6.07
2023-05-15T08:44:33.199Z,6.45
2023-05-15T08:47:00.689Z,6.13
2023-05-15T08:49:30.970Z,4.90
2023-05-15T08:51:58.443Z,5.50
2023-05-15T08:54:26.269Z,4.97
2023-05-15T08:56:54.019Z,4.88
2023-05-15T08:59:21.669Z,4.68
2023-05-15T09:01:49.953Z,4.60
2023-05-15T09:04:17.394Z,3.95
2023-05-15T09:06:45.213Z,4.60
2023-05-15T09:09:13.735Z,5.70
2023-05-15T09:11:44.727Z,4.03
2023-05-15T09:14:12.521Z,4.72
2023-05-15T09:16:39.856Z,5.15
2023-05-15T09:19:07.850Z,5.00
2023-05-15T09:21:36.144Z,4.45
2023-05-15T09:24:18.843Z,4.05
2023-05-15T09:26:47.158Z,4.63
2023-05-15T09:29:19.095Z,5.35
2023-05-15T09:31:50.215Z,4.47
2023-05-15T09:34:17.542Z,4.32
2023-05-15T09:36:45.135Z,4.50
2023-05-15T09:39:12.536Z,4.10
2023-05-15T09:41:43.780Z,5.40
2023-05-15T09:44:21.622Z,4.45
2023-05-15T09:46:49.715Z,4.38
2023-05-15T09:49:17.377Z,4.30
2023-05-15T09:51:45.180Z,4.88
2023-05-15T09:54:18.698Z,5.38
2023-05-15T09:56:47.397Z,5.07
2023-05-15T09:59:21.707Z,5.65
2023-05-15T10:01:49.960Z,5.57
2023-05-15T10:04:17.652Z,5.68
2023-05-15T10:06:48.991Z,5.03
2023-05-15T10:09:17.068Z,5.72
2023-05-15T10:11:45.510Z,5.45
2023-05-15T10:14:13.688Z,5.15
2023-05-15T10:16:42.122Z,5.53
2023-05-15T10:19:11.070Z,5.38
2023-05-15T10:21:40.890Z,5.70
2023-05-15T10:24:08.564Z,5.38
2023-05-15T10:26:42.384Z,5.30
2023-05-15T10:29:12.959Z,5.40
2023-05-15T10:31:41.235Z,4.63
2023-05-15T10:34:08.964Z,5.22
2023-05-15T10:36:37.990Z,5.03
2023-05-15T10:39:07.083Z,4.75
2023-05-15T10:41:36.586Z,5.20
2023-05-15T10:44:03.911Z,4.55
2023-05-15T10:46:32.973Z,4.05
2023-05-15T10:49:01.805Z,4.03
2023-05-15T10:51:30.268Z,4.90
2023-05-15T10:53:57.887Z,4.35
2023-05-15T10:56:31.005Z,4.78
2023-05-15T10:58:58.643Z,4.88
2023-05-15T11:01:35.854Z,5.72
2023-05-15T11:04:07.962Z,5.15
2023-05-15T11:06:36.133Z,24.33
2023-05-15T11:09:27.421Z,4.47
2023-05-15T11:11:59.091Z,7.28
2023-05-15T11:14:30.451Z,5.65
2023-05-15T11:16:58.935Z,2.92
2023-05-15T11:19:33.554Z,2.70
2023-05-15T11:22:09.895Z,3.67
2023-05-15T11:24:56.152Z,1.42
2023-05-15T11:27:24.660Z,1.10
2023-05-15T11:30:07.247Z,1.00
2023-05-15T11:32:52.999Z,1.00
2023-05-15T11:35:35.375Z,1.38
2023-05-15T11:38:04.104Z,1.02
2023-05-15T11:40:32.679Z,0.90
2023-05-15T11:43:01.243Z,1.15
2023-05-15T11:45:32.289Z,0.98
2023-05-15T11:48:03.385Z,0.90
2023-05-15T11:50:34.660Z,1.75
2023-05-15T11:53:06.352Z,1.90
2023-05-15T11:55:34.387Z,1.92
2023-05-15T11:58:02.170Z,1.15
2023-05-15T12:00:29.734Z,1.45
2023-05-15T12:02:57.428Z,1.50
2023-05-15T12:05:24.973Z,1.60
2023-05-15T12:07:52.535Z,2.58
2023-05-15T12:10:19.946Z,2.80
2023-05-15T12:12:47.419Z,3.05
2023-05-15T12:15:15.460Z,2.88
2023-05-15T12:17:43.501Z,2.60
2023-05-15T12:20:18.529Z,2.75
2023-05-15T12:22:46.225Z,2.60
2023-05-15T12:25:14.092Z,2.70
2023-05-15T12:27:41.694Z,2.58
2023-05-15T12:30:11.185Z,2.63
2023-05-15T12:32:38.839Z,3.15
2023-05-15T12:35:06.423Z,2.50
2023-05-15T12:37:36.013Z,2.45
2023-05-15T12:40:10.316Z,3.05
2023-05-15T12:42:44.665Z,2.88
2023-05-15T12:45:18.998Z,3.10
2023-05-15T12:47:47.115Z,3.30
2023-05-15T12:50:18.802Z,2.65
2023-05-15T12:52:52.959Z,2.90
2023-05-15T12:55:32.350Z,2.60
2023-05-15T12:58:07.870Z,3.20
2023-05-15T13:00:36.235Z,2.60
2023-05-15T13:03:04.513Z,2.83
2023-05-15T13:05:37.753Z,4.25
2023-05-15T13:08:07.453Z,3.17
2023-05-15T13:10:35.987Z,3.90
2023-05-15T13:13:03.502Z,3.15
2023-05-15T13:15:32.382Z,2.90
2023-05-15T13:18:01.672Z,3.00
2023-05-15T13:20:32.132Z,2.88
2023-05-15T13:22:59.815Z,3.30
2023-05-15T13:25:27.266Z,4.25
2023-05-15T13:27:56.337Z,3.20
2023-05-15T13:30:24.326Z,2.67
2023-05-15T13:32:54.785Z,2.55
2023-05-15T13:35:24.375Z,3.10
2023-05-15T13:37:52.726Z,2.60
2023-05-15T13:40:20.168Z,2.72
2023-05-15T13:42:48.275Z,2.80
2023-05-15T13:45:17.618Z,7.95
2023-05-15T13:47:46.730Z,2.70
2023-05-15T13:50:14.866Z,3.20
2023-05-15T13:52:42.852Z,3.28
2023-05-15T13:55:10.694Z,2.30
2023-05-15T13:57:38.913Z,2.55
2023-05-15T14:00:07.837Z,2.60
2023-05-15T14:02:35.379Z,2.80
2023-05-15T14:05:04.774Z,3.35
2023-05-15T14:07:32.434Z,3.05
2023-05-15T14:10:00.424Z,5.18
2023-05-15T14:12:28.627Z,3.25
2023-05-15T14:14:56.327Z,2.38
2023-05-15T14:17:24.004Z,2.90
2023-05-15T14:19:51.421Z,3.25
2023-05-15T14:22:18.732Z,3.65
2023-05-15T14:24:46.360Z,2.88
2023-05-15T14:27:13.713Z,2.90
2023-05-15T14:29:41.112Z,2.70
2023-05-15T14:32:09.171Z,3.10
2023-05-15T14:34:37.068Z,2.63
2023-05-15T14:37:04.546Z,3.53
2023-05-15T14:39:32.089Z,3.40
2023-05-15T14:41:59.463Z,3.38
2023-05-15T14:44:26.779Z,2.47
2023-05-15T14:47:12.666Z,2.70
2023-05-15T14:49:40.043Z,4.15
2023-05-15T14:52:08.510Z,2.60
2023-05-15T14:54:36.056Z,3.17
2023-05-15T14:57:04.203Z,2.72
2023-05-15T14:59:31.594Z,3.15
2023-05-15T15:01:58.875Z,3.78
2023-05-15T15:04:30.624Z,3.40
2023-05-15T15:06:58.097Z,2.60
2023-05-15T15:10:09.604Z,3.00
2023-05-15T15:12:37.014Z,3.33
2023-05-15T15:15:05.028Z,3.10
2023-05-15T15:17:32.433Z,2.90
2023-05-15T15:19:59.810Z,3.47
2023-05-15T15:22:27.205Z,7.45
2023-05-15T15:24:56.691Z,2.85
2023-05-15T15:27:24.805Z,5.88
2023-05-15T15:29:52.126Z,6.53
2023-05-15T15:32:20.701Z,5.25
2023-05-15T15:34:48.433Z,9.75
2023-05-15T15:37:15.791Z,6.55
2023-05-15T15:39:43.061Z,8.43
2023-05-15T15:42:10.878Z,6.13
2023-05-15T15:44:38.204Z,9.57
2023-05-15T15:47:05.621Z,6.77
2023-05-15T15:49:33.218Z,4.63
2023-05-15T15:52:00.443Z,4.57
2023-05-15T15:54:29.005Z,5.50
2023-05-15T15:56:56.458Z,4.00
2023-05-15T15:59:28.724Z,3.40
2023-05-15T16:01:59.213Z,3.37
2023-05-15T16:04:26.436Z,4.47
2023-05-15T16:06:53.915Z,5.15
2023-05-15T16:09:21.702Z,7.30
2023-05-15T16:11:49.239Z,10.38
2023-05-15T16:14:16.607Z,24.73
2023-05-15T16:16:43.960Z,10.75
2023-05-15T16:19:11.553Z,13.55
2023-05-15T16:21:39.141Z,5.72
2023-05-15T16:24:06.619Z,7.15
2023-05-15T16:26:33.980Z,8.98
2023-05-15T16:29:01.255Z,16.77
2023-05-15T16:31:28.635Z,9.18
2023-05-15T16:33:55.971Z,10.82
2023-05-15T16:36:23.219Z,8.13
2023-05-15T16:38:51.093Z,4.75
2023-05-15T16:41:18.506Z,4.90
2023-05-15T16:43:45.812Z,9.20
2023-05-15T16:46:13.200Z,6.15
2023-05-15T16:48:40.746Z,9.45
2023-05-15T16:51:08.121Z,11.38
2023-05-15T16:53:35.649Z,20.95
2023-05-15T16:56:03.101Z,4.57
2023-05-15T16:58:30.494Z,4.40
2023-05-15T17:00:57.744Z,4.63
2023-05-15T17:03:25.123Z,13.90
2023-05-15T17:05:52.605Z,6.45
2023-05-15T17:08:20.313Z,5.75
2023-05-15T17:10:47.582Z,8.88
2023-05-15T17:13:14.799Z,5.82
2023-05-15T17:15:42.271Z,5.45
2023-05-15T17:18:15.510Z,6.10
2023-05-15T17:20:44.659Z,4.93
2023-05-15T17:23:15.987Z,5.50
2023-05-15T17:25:43.311Z,5.72
2023-05-15T17:28:11.139Z,7.93
2023-05-15T17:30:39.531Z,5.93
2023-05-15T17:33:06.928Z,5.43
2023-05-15T17:35:34.906Z,5.70
2023-05-15T17:38:02.208Z,7.32
2023-05-15T17:40:29.652Z,8.07
2023-05-15T17:42:57.239Z,6.43
2023-05-15T17:45:24.868Z,5.50
2023-05-15T17:47:52.730Z,5.93
2023-05-15T17:50:20.033Z,4.87
2023-05-15T17:52:47.420Z,5.00
2023-05-15T17:55:14.818Z,4.90
2023-05-15T17:57:42.209Z,4.70
2023-05-15T18:00:10.016Z,4.67
2023-05-15T18:02:37.729Z,7.43
2023-05-15T18:05:06.677Z,5.00
2023-05-15T18:07:34.560Z,4.50
2023-05-15T18:10:03.898Z,4.53
2023-05-15T18:12:31.202Z,4.80
2023-05-15T18:14:58.672Z,5.50
2023-05-15T18:17:26.730Z,5.10
2023-05-15T18:19:54.306Z,5.40
2023-05-15T18:22:21.776Z,4.30
2023-05-15T18:24:49.358Z,4.77
2023-05-15T18:27:16.833Z,6.63
2023-05-15T18:29:45.619Z,5.07
2023-05-15T18:32:13.510Z,5.30
2023-05-15T18:34:42.557Z,4.90
2023-05-15T18:37:12.568Z,5.43
2023-05-15T18:39:40.169Z,4.60
2023-05-15T18:42:07.917Z,4.63
2023-05-15T18:44:36.079Z,6.77
2023-05-15T18:47:03.607Z,7.40
2023-05-15T18:49:31.314Z,6.60
2023-05-15T18:51:59.316Z,6.57
2023-05-15T18:54:27.133Z,6.60
2023-05-15T18:56:54.986Z,10.37
2023-05-15T18:59:22.938Z,16.40
2023-05-15T19:01:50.589Z,11.80
2023-05-15T19:04:18.066Z,6.53
2023-05-15T19:06:48.508Z,4.80
2023-05-15T19:09:15.806Z,4.73
2023-05-15T19:11:46.654Z,4.60
2023-05-15T19:14:15.710Z,4.00
2023-05-15T19:16:43.210Z,4.33
2023-05-15T19:19:10.777Z,3.77
2023-05-15T19:21:39.012Z,3.53
2023-05-15T19:24:07.183Z,3.60
2023-05-15T19:26:36.183Z,4.10
2023-05-15T19:29:03.808Z,3.83
2023-05-15T19:31:32.412Z,5.67
2023-05-15T19:34:01.001Z,3.43
2023-05-15T19:36:28.520Z,3.30
2023-05-15T19:38:56.496Z,3.83
2023-05-15T19:41:24.121Z,4.13
2023-05-15T19:43:55.415Z,4.10
2023-05-15T19:46:23.016Z,5.03
2023-05-15T19:48:50.483Z,5.37
2023-05-15T19:51:17.774Z,4.90
2023-05-15T19:53:46.075Z,5.70
2023-05-15T19:56:14.859Z,5.17
2023-05-15T19:59:04.098Z,5.90
2023-05-15T20:01:31.677Z,4.53
2023-05-15T20:03:59.160Z,4.90
2023-05-15T20:06:27.015Z,5.40
2023-05-15T20:08:54.311Z,5.83
2023-05-15T20:11:23.796Z,5.90
2023-05-15T20:13:51.786Z,5.67
2023-05-15T20:16:19.604Z,6.57
2023-05-15T20:18:48.202Z,6.63
2023-05-15T20:21:16.368Z,5.83
2023-05-15T20:23:53.681Z,5.30
2023-05-15T20:26:23.612Z,8.23
2023-05-15T20:28:51.508Z,7.87
2023-05-15T20:31:20.207Z,6.90
2023-05-15T20:33:47.619Z,6.60
2023-05-15T20:36:16.813Z,6.47
2023-05-15T20:38:45.212Z,5.70
2023-05-15T20:41:13.000Z,6.53
2023-05-15T20:43:41.965Z,6.93
2023-05-15T20:46:10.029Z,7.80
2023-05-15T20:48:37.553Z,6.47
2023-05-15T20:51:04.993Z,6.47
2023-05-15T20:53:33.477Z,5.97
2023-05-15T20:56:01.217Z,5.63
2023-05-15T20:58:28.676Z,5.30
2023-05-15T21:00:56.150Z,5.13
2023-05-15T21:03:24.453Z,5.03
2023-05-15T21:05:54.827Z,5.23
2023-05-15T21:08:24.174Z,6.00
2023-05-15T21:10:53.433Z,5.47
2023-05-15T21:13:22.738Z,5.57
2023-05-15T21:15:50.404Z,6.27
2023-05-15T21:18:18.896Z,5.93
2023-05-15T21:20:46.195Z,6.10
2023-05-15T21:23:13.509Z,5.70
2023-05-15T21:25:43.256Z,6.00
2023-05-15T21:28:11.171Z,6.33
2023-05-15T21:30:39.481Z,7.30
2023-05-15T21:33:07.300Z,5.90
2023-05-15T21:35:34.835Z,5.80
2023-05-15T21:38:02.294Z,5.90
2023-05-15T21:40:29.604Z,6.00
2023-05-15T21:42:56.920Z,6.07
2023-05-15T21:45:24.216Z,6.23
2023-05-15T21:47:51.641Z,5.53
2023-05-15T21:50:20.378Z,5.80
2023-05-15T21:52:50.350Z,5.77
2023-05-15T21:55:17.605Z,6.03
2023-05-15T21:57:45.064Z,6.50
2023-05-15T22:00:12.558Z,5.50
2023-05-15T22:02:40.846Z,7.00
2023-05-15T22:05:08.622Z,6.30
2023-05-15T22:07:36.334Z,5.93
2023-05-15T22:10:03.754Z,7.73
2023-05-15T22:12:32.463Z,5.90
2023-05-15T22:15:00.113Z,6.37
2023-05-15T22:17:30.943Z,6.03
2023-05-15T22:20:07.318Z,6.10
2023-05-15T22:22:36.401Z,7.00
2023-05-15T22:25:04.136Z,6.97
2023-05-15T22:27:31.874Z,6.67
2023-05-15T22:29:59.316Z,6.57
2023-05-15T22:32:26.704Z,6.03
2023-05-15T22:34:55.472Z,7.67
2023-05-15T22:37:23.040Z,7.30
2023-05-15T22:39:50.562Z,7.23
2023-05-15T22:42:19.185Z,7.37
2023-05-15T22:44:47.765Z,7.07
2023-05-15T22:47:15.074Z,7.27
2023-05-15T22:49:43.557Z,7.33
2023-05-15T22:52:13.637Z,6.97
2023-05-15T22:54:41.550Z,7.37
2023-05-15T22:57:09.139Z,7.27
2023-05-15T22:59:36.749Z,8.10
2023-05-15T23:02:04.128Z,8.13
2023-05-15T23:04:31.339Z,8.07
2023-05-15T23:06:58.867Z,8.47
2023-05-15T23:09:26.648Z,8.93
2023-05-15T23:11:54.283Z,8.70
2023-05-15T23:14:21.941Z,7.23
2023-05-15T23:16:49.952Z,8.47
2023-05-15T23:19:17.206Z,8.70
2023-05-15T23:21:44.526Z,8.57
2023-05-15T23:24:12.698Z,8.67
2023-05-15T23:26:40.412Z,8.77
2023-05-15T23:29:07.901Z,8.60
2023-05-15T23:31:35.590Z,8.27
2023-05-15T23:34:02.868Z,9.10
2023-05-15T23:36:30.249Z,8.23
2023-05-15T23:38:58.017Z,8.90
2023-05-15T23:41:26.471Z,9.67
2023-05-15T23:43:55.892Z,8.90
2023-05-15T23:46:23.176Z,9.17
2023-05-15T23:48:50.748Z,9.10
2023-05-15T23:51:17.967Z,8.13
2023-05-15T23:53:45.399Z,9.57
2023-05-15T23:56:12.820Z,9.30
2023-05-15T23:58:40.359Z,8.97
